Time;durP1;ratioP1;P1;durP2;ratioP2;P2;SDS_P1;SDS_P2;PMS_P1;PMS_P2;Temp;Humidity;BMP_temperature;BMP_pressure;BME280_temperature;BME280_humidity;BME280_pressure;Samples;Min_cycle;Max_cycle;Signal;HPM_P1;HPM_P2
2021/11/03 00:00:02;;;;;;;;;;;;;;;;;;347349;28;1019;-75
2021/11/03 00:00:14;;;;;;;;;;;;;;;;;;347239;28;1005;-75
2021/11/03 00:00:24;;;;;;;;;;;;;;;;;;347322;28;988;-75
2021/11/03 00:00:50;;;;;;;;;;;;;;;;;;347209;28;909;-75
2021/11/03 00:01:01;;;;;;;;;;;;;;;;;;347297;28;924;-75
2021/11/03 00:01:13;;;;;;;;;;;;;;;;;;347217;28;1550;-74
2021/11/03 00:01:23;;;;;;;;;;;;;;;;;;347188;28;1327;-74
2021/11/03 00:01:35;;;;;;;;;;;;;;;;;;347281;28;853;-74
2021/11/03 00:01:46;;;;;;;;;;;;;;;;;;347135;28;980;-75
2021/11/03 00:01:56;;;;;;;;;;;;;;;;;;347243;28;945;-75
2021/11/03 00:02:08;;;;;;;;;;;;;;;;;;347259;28;897;-75
2021/11/03 00:02:51;;;;;;;;;;;;;;;;;;346983;28;853;-77
2021/11/03 00:03:02;;;;;;;;;;;;;;;;;;347201;28;846;-76
2021/11/03 00:03:13;;;;;;;;;;;;;;;;;;348279;28;969;-75
2021/11/03 00:03:23;;;;;;;;;;;;;;;;;;347480;28;905;-75
2021/11/03 00:03:34;;;;;;;;;;;;;;;;;;347264;28;865;-72
2021/11/03 00:03:46;;;;;;;;;;;;;;;;;;347292;28;838;-74
2021/11/03 00:03:57;;;;;;;;;;;;;;;;;;347266;28;853;-74
2021/11/03 00:04:09;;;;;;;;;;;;;;;;;;347285;28;857;-75
2021/11/03 00:04:19;;;;;;;;;;;;;;;;;;347230;28;841;-75
2021/11/03 00:04:30;;;;;;;;;;;;;;;;;;347255;28;968;-75
2021/11/03 00:04:41;;;;;;;;;;;;;;;;;;347290;28;972;-75
2021/11/03 00:04:51;;;;;;;;;;;;;;;;;;345802;28;1165;-75
2021/11/03 00:05:02;;;;;;;;;;;;;;;;;;345729;28;853;-73
2021/11/03 00:05:14;;;;;;;;;;;;;;;;;;344499;28;870;-74
2021/11/03 00:05:24;;;;;;;;;;;;;;;;;;345839;28;917;-75
2021/11/03 00:05:37;;;;;;;;;;;;;;;;;;345889;28;822;-74
2021/11/03 00:05:48;;;;;;;;;;;;;;;;;;345608;28;1451;-74
2021/11/03 00:05:58;;;;;;;;;;;;;;;;;;345926;28;798;-75
2021/11/03 00:06:09;;;;;;;;;;;;;;;;;;345844;28;941;-74
2021/11/03 00:06:21;;;;;;;;;;;;;;;;;;345945;28;845;-74
2021/11/03 00:06:32;;;;;;;;;;;;;;;;;;345893;28;805;-75
2021/11/03 00:06:58;;;;;;;;;;;;;;;;;;345894;28;814;-75
2021/11/03 00:07:10;;;;;;;;;;;;;;;;;;347144;28;996;-75
2021/11/03 00:07:20;;;;;;;;;;;;;;;;;;347232;28;774;-75
2021/11/03 00:07:31;;;;;;;;;;;;;;;;;;347298;28;857;-75
2021/11/03 00:07:42;;;;;;;;;;;;;;;;;;346211;28;925;-75
2021/11/03 00:07:54;;;;;;;;;;;;;;;;;;347116;28;1032;-74
2021/11/03 00:08:04;;;;;;;;;;;;;;;;;;344375;28;1281;-75
2021/11/03 00:08:30;;;;;;;;;;;;;;;;;;344436;28;1036;-74
2021/11/03 00:08:41;;;;;;;;;;;;;;;;;;344534;28;877;-74
2021/11/03 00:08:51;;;;;;;;;;;;;;;;;;344499;28;877;-75
2021/11/03 00:09:03;;;;;;;;;;;;;;;;;;344532;28;854;-74
2021/11/03 00:09:13;;;;;;;;;;;;;;;;;;345680;28;1894;-75
2021/11/03 00:09:25;;;;;;;;;;;;;;;;;;345711;28;484;-75
2021/11/03 00:09:39;;;;;;;;;;;;;;;;;;345868;28;1000;-75
2021/11/03 00:10:17;;;;;;;;;;;;;;;;;;343105;28;870;-75
2021/11/03 00:10:27;;;;;;;;;;;;;;;;;;343165;28;1141;-75
2021/11/03 00:10:41;;;;;;;;;;;;;;;;;;343207;28;977;-74
2021/11/03 00:10:52;;;;;;;;;;;;;;;;;;344411;28;803;-75
2021/11/03 00:11:03;;;;;;;;;;;;;;;;;;345755;28;977;-75
2021/11/03 00:11:15;;;;;;;;;;;;;;;;;;345845;28;989;-76
2021/11/03 00:11:25;;;;;;;;;;;;;;;;;;345748;28;1531;-75
2021/11/03 00:11:36;;;;;;;;;;;;;;;;;;343854;28;1160;-75
2021/11/03 00:11:46;;;;;;;;;;;;;;;;;;343158;28;937;-75
2021/11/03 00:11:58;;;;;;;;;;;;;;;;;;343237;28;1005;-75
2021/11/03 00:12:48;;;;;;;;;;;;;;;;;;343190;28;1029;-75
2021/11/03 00:13:04;;;;;;;;;;;;;;;;;;341622;29;1184;-75
2021/11/03 00:13:15;;;;;;;;;;;;;;;;;;341858;29;1061;-73
2021/11/03 00:13:26;;;;;;;;;;;;;;;;;;343021;28;934;-74
2021/11/03 00:13:37;;;;;;;;;;;;;;;;;;344383;28;1021;-75
2021/11/03 00:13:47;;;;;;;;;;;;;;;;;;344397;28;1016;-75
2021/11/03 00:13:58;;;;;;;;;;;;;;;;;;344525;28;795;-74
2021/11/03 00:14:08;;;;;;;;;;;;;;;;;;345778;28;862;-75
2021/11/03 00:14:18;;;;;;;;;;;;;;;;;;345888;28;977;-75
2021/11/03 00:14:29;;;;;;;;;;;;;;;;;;345795;28;1212;-75
2021/11/03 00:14:39;;;;;;;;;;;;;;;;;;345863;28;917;-75
2021/11/03 00:15:16;;;;;;;;;;;;;;;;;;345737;28;936;-74
2021/11/03 00:15:26;;;;;;;;;;;;;;;;;;345883;28;1004;-75
2021/11/03 00:15:37;;;;;;;;;;;;;;;;;;344075;28;978;-75
2021/11/03 00:15:48;;;;;;;;;;;;;;;;;;344485;28;787;-75
2021/11/03 00:16:04;;;;;;;;;;;;;;;;;;344477;28;1004;-73
2021/11/03 00:17:12;;;;;;;;;;;;;;;;;;345864;28;961;-75
2021/11/03 00:17:28;;;;;;;;;;;;;;;;;;344438;28;1638;-74
2021/11/03 00:17:38;;;;;;;;;;;;;;;;;;345891;28;862;-74
2021/11/03 00:17:49;;;;;;;;;;;;;;;;;;345854;28;810;-75
2021/11/03 00:17:59;;;;;;;;;;;;;;;;;;345722;28;854;-75
2021/11/03 00:18:09;;;;;;;;;;;;;;;;;;345017;28;798;-75
2021/11/03 00:18:20;;;;;;;;;;;;;;;;;;345781;28;1009;-74
2021/11/03 00:18:30;;;;;;;;;;;;;;;;;;345747;28;1432;-74
2021/11/03 00:18:41;;;;;;;;;;;;;;;;;;345810;28;973;-74
2021/11/03 00:18:51;;;;;;;;;;;;;;;;;;345916;28;960;-75
2021/11/03 00:19:01;;;;;;;;;;;;;;;;;;345823;28;914;-74
2021/11/03 00:19:12;;;;;;;;;;;;;;;;;;345718;28;1463;-74
2021/11/03 00:19:22;;;;;;;;;;;;;;;;;;344531;28;834;-75
2021/11/03 00:19:33;;;;;;;;;;;;;;;;;;344537;28;1023;-75
2021/11/03 00:19:43;;;;;;;;;;;;;;;;;;344483;28;1032;-75
2021/11/03 00:19:54;;;;;;;;;;;;;;;;;;344517;28;830;-75
2021/11/03 00:20:06;;;;;;;;;;;;;;;;;;344531;28;894;-75
2021/11/03 00:20:17;;;;;;;;;;;;;;;;;;344430;28;812;-75
2021/11/03 00:20:28;;;;;;;;;;;;;;;;;;344396;28;1304;-74
2021/11/03 00:20:38;;;;;;;;;;;;;;;;;;344400;28;1208;-75
2021/11/03 00:20:56;;;;;;;;;;;;;;;;;;344515;28;787;-74
2021/11/03 00:21:07;;;;;;;;;;;;;;;;;;344373;28;1461;-75
2021/11/03 00:21:17;;;;;;;;;;;;;;;;;;341697;29;1352;-74
2021/11/03 00:21:28;;;;;;;;;;;;;;;;;;341842;29;973;-75
2021/11/03 00:21:38;;;;;;;;;;;;;;;;;;344407;28;1529;-74
2021/11/03 00:21:49;;;;;;;;;;;;;;;;;;344445;28;1025;-74
2021/11/03 00:21:59;;;;;;;;;;;;;;;;;;343031;28;1313;-74
2021/11/03 00:22:10;;;;;;;;;;;;;;;;;;343190;28;909;-75
2021/11/03 00:22:20;;;;;;;;;;;;;;;;;;343139;28;944;-74
2021/11/03 00:22:30;;;;;;;;;;;;;;;;;;344532;28;961;-72
2021/11/03 00:22:57;;;;;;;;;;;;;;;;;;344414;28;1032;-75
2021/11/03 00:23:07;;;;;;;;;;;;;;;;;;344399;28;1064;-75
2021/11/03 00:23:18;;;;;;;;;;;;;;;;;;345741;28;966;-74
2021/11/03 00:23:28;;;;;;;;;;;;;;;;;;345749;28;1467;-75
2021/11/03 00:23:39;;;;;;;;;;;;;;;;;;345904;28;807;-74
2021/11/03 00:23:58;;;;;;;;;;;;;;;;;;345819;28;988;-74
2021/11/03 00:24:09;;;;;;;;;;;;;;;;;;345865;28;985;-75
2021/11/03 00:24:19;;;;;;;;;;;;;;;;;;344401;28;1385;-75
2021/11/03 00:24:34;;;;;;;;;;;;;;;;;;344451;28;846;-74
2021/11/03 00:24:44;;;;;;;;;;;;;;;;;;344523;28;938;-75
2021/11/03 00:24:55;;;;;;;;;;;;;;;;;;344416;28;937;-75
2021/11/03 00:25:06;;;;;;;;;;;;;;;;;;344390;28;1297;-74
2021/11/03 00:25:16;;;;;;;;;;;;;;;;;;343087;28;942;-75
2021/11/03 00:25:27;;;;;;;;;;;;;;;;;;344110;28;815;-75
2021/11/03 00:25:40;;;;;;;;;;;;;;;;;;344492;28;922;-75
2021/11/03 00:25:50;;;;;;;;;;;;;;;;;;344447;28;1542;-75
2021/11/03 00:26:01;;;;;;;;;;;;;;;;;;344521;28;806;-75
2021/11/03 00:26:11;;;;;;;;;;;;;;;;;;344261;28;977;-75
2021/11/03 00:26:21;;;;;;;;;;;;;;;;;;345845;28;969;-75
2021/11/03 00:26:32;;;;;;;;;;;;;;;;;;345807;28;992;-75
2021/11/03 00:26:42;;;;;;;;;;;;;;;;;;344412;28;1422;-75
2021/11/03 00:26:52;;;;;;;;;;;;;;;;;;344539;28;925;-74
2021/11/03 00:27:03;;;;;;;;;;;;;;;;;;344477;28;973;-75
2021/11/03 00:27:13;;;;;;;;;;;;;;;;;;345242;28;826;-74
2021/11/03 00:28:08;;;;;;;;;;;;;;;;;;347199;28;949;-74
2021/11/03 00:28:25;;;;;;;;;;;;;;;;;;345742;28;1483;-75
2021/11/03 00:28:35;;;;;;;;;;;;;;;;;;346114;28;1072;-74
2021/11/03 00:28:46;;;;;;;;;;;;;;;;;;347053;28;1156;-75
2021/11/03 00:29:12;;;;;;;;;;;;;;;;;;347218;28;1000;-74
2021/11/03 00:29:22;;;;;;;;;;;;;;;;;;347057;28;1898;-75
2021/11/03 00:29:32;;;;;;;;;;;;;;;;;;347185;28;818;-75
2021/11/03 00:29:43;;;;;;;;;;;;;;;;;;347092;28;1319;-75
2021/11/03 00:29:53;;;;;;;;;;;;;;;;;;347222;28;817;-74
2021/11/03 00:30:04;;;;;;;;;;;;;;;;;;345784;28;1291;-74
2021/11/03 00:30:15;;;;;;;;;;;;;;;;;;347093;28;1185;-73
2021/11/03 00:30:25;;;;;;;;;;;;;;;;;;347149;28;837;-75
2021/11/03 00:30:36;;;;;;;;;;;;;;;;;;344405;28;1284;-72
2021/11/03 00:30:48;;;;;;;;;;;;;;;;;;344505;28;1166;-75
2021/11/03 00:30:58;;;;;;;;;;;;;;;;;;344455;28;925;-75
2021/11/03 00:31:09;;;;;;;;;;;;;;;;;;344519;28;834;-74
2021/11/03 00:31:25;;;;;;;;;;;;;;;;;;344539;28;1001;-74
2021/11/03 00:31:36;;;;;;;;;;;;;;;;;;344404;28;965;-75
2021/11/03 00:31:46;;;;;;;;;;;;;;;;;;344397;28;986;-74
2021/11/03 00:31:56;;;;;;;;;;;;;;;;;;345756;28;1175;-75
2021/11/03 00:32:33;;;;;;;;;;;;;;;;;;347592;28;973;-73
2021/11/03 00:32:44;;;;;;;;;;;;;;;;;;348595;28;981;-74
2021/11/03 00:32:55;;;;;;;;;;;;;;;;;;347151;28;1423;-74
2021/11/03 00:33:05;;;;;;;;;;;;;;;;;;344865;28;1462;-75
2021/11/03 00:33:17;;;;;;;;;;;;;;;;;;344365;28;854;-74
2021/11/03 00:33:28;;;;;;;;;;;;;;;;;;343164;28;890;-75
2021/11/03 00:33:38;;;;;;;;;;;;;;;;;;343171;28;1025;-75
2021/11/03 00:34:01;;;;;;;;;;;;;;;;;;343082;28;977;-75
2021/11/03 00:34:17;;;;;;;;;;;;;;;;;;343155;28;827;-75
2021/11/03 00:34:34;;;;;;;;;;;;;;;;;;343143;28;901;-76
2021/11/03 00:34:44;;;;;;;;;;;;;;;;;;343175;28;811;-76
2021/11/03 00:35:00;;;;;;;;;;;;;;;;;;345540;28;1296;-76
2021/11/03 00:35:12;;;;;;;;;;;;;;;;;;345747;28;1475;-76
2021/11/03 00:35:22;;;;;;;;;;;;;;;;;;344879;28;1602;-76
2021/11/03 00:35:38;;;;;;;;;;;;;;;;;;345809;28;1005;-75
2021/11/03 00:35:49;;;;;;;;;;;;;;;;;;344544;28;834;-76
2021/11/03 00:36:00;;;;;;;;;;;;;;;;;;344452;28;972;-76
2021/11/03 00:36:10;;;;;;;;;;;;;;;;;;344205;28;994;-76
2021/11/03 00:36:20;;;;;;;;;;;;;;;;;;344438;28;858;-76
2021/11/03 00:36:31;;;;;;;;;;;;;;;;;;344462;28;897;-76
2021/11/03 00:36:44;;;;;;;;;;;;;;;;;;343057;28;1230;-74
2021/11/03 00:36:54;;;;;;;;;;;;;;;;;;344420;28;1326;-76
2021/11/03 00:37:05;;;;;;;;;;;;;;;;;;344512;28;802;-75
2021/11/03 00:37:41;;;;;;;;;;;;;;;;;;343143;28;1198;-75
2021/11/03 00:37:51;;;;;;;;;;;;;;;;;;343025;28;1324;-75
2021/11/03 00:38:02;;;;;;;;;;;;;;;;;;343173;28;518;-76
2021/11/03 00:38:13;;;;;;;;;;;;;;;;;;342928;28;1407;-75
2021/11/03 00:38:23;;;;;;;;;;;;;;;;;;341447;29;1389;-75
2021/11/03 00:38:33;;;;;;;;;;;;;;;;;;341808;29;811;-75
2021/11/03 00:38:44;;;;;;;;;;;;;;;;;;341796;29;886;-75
2021/11/03 00:38:54;;;;;;;;;;;;;;;;;;343019;28;1364;-75
2021/11/03 00:39:04;;;;;;;;;;;;;;;;;;343173;28;958;-75
2021/11/03 00:39:41;;;;;;;;;;;;;;;;;;344464;28;953;-75
2021/11/03 00:39:51;;;;;;;;;;;;;;;;;;345131;28;1023;-76
2021/11/03 00:40:02;;;;;;;;;;;;;;;;;;344449;28;803;-76
2021/11/03 00:40:13;;;;;;;;;;;;;;;;;;343286;28;905;-75
2021/11/03 00:40:23;;;;;;;;;;;;;;;;;;345462;28;977;-76
2021/11/03 00:40:34;;;;;;;;;;;;;;;;;;345356;28;1176;-75
2021/11/03 00:40:44;;;;;;;;;;;;;;;;;;345814;28;965;-75
2021/11/03 00:40:55;;;;;;;;;;;;;;;;;;345654;28;1465;-75
2021/11/03 00:41:23;;;;;;;;;;;;;;;;;;345797;28;953;-75
2021/11/03 00:41:34;;;;;;;;;;;;;;;;;;345894;28;902;-75
2021/11/03 00:42:19;;;;;;;;;;;;;;;;;;347164;28;969;-75
2021/11/03 00:42:36;;;;;;;;;;;;;;;;;;345835;28;857;-75
2021/11/03 00:42:47;;;;;;;;;;;;;;;;;;345788;28;775;-75
2021/11/03 00:42:57;;;;;;;;;;;;;;;;;;347155;28;980;-76
2021/11/03 00:43:08;;;;;;;;;;;;;;;;;;347176;28;917;-75
2021/11/03 00:44:00;;;;;;;;;;;;;;;;;;348528;28;881;-76
2021/11/03 00:44:36;;;;;;;;;;;;;;;;;;348577;28;917;-76
2021/11/03 00:44:46;;;;;;;;;;;;;;;;;;348567;28;865;-75
2021/11/03 00:44:57;;;;;;;;;;;;;;;;;;348079;28;999;-76
2021/11/03 00:45:08;;;;;;;;;;;;;;;;;;348422;28;881;-75
2021/11/03 00:45:19;;;;;;;;;;;;;;;;;;347135;28;920;-76
2021/11/03 00:45:30;;;;;;;;;;;;;;;;;;347012;28;1373;-75
2021/11/03 00:45:41;;;;;;;;;;;;;;;;;;347210;28;833;-76
2021/11/03 00:45:51;;;;;;;;;;;;;;;;;;347184;28;917;-75
2021/11/03 00:46:17;;;;;;;;;;;;;;;;;;345718;28;1332;-76
2021/11/03 00:46:28;;;;;;;;;;;;;;;;;;345704;28;1316;-75
2021/11/03 00:46:38;;;;;;;;;;;;;;;;;;345731;28;1323;-76
2021/11/03 00:46:49;;;;;;;;;;;;;;;;;;345833;28;941;-76
2021/11/03 00:47:00;;;;;;;;;;;;;;;;;;345860;28;822;-76
2021/11/03 00:47:10;;;;;;;;;;;;;;;;;;345743;28;881;-75
2021/11/03 00:47:20;;;;;;;;;;;;;;;;;;345607;28;988;-75
2021/11/03 00:47:31;;;;;;;;;;;;;;;;;;344472;28;902;-75
2021/11/03 00:47:41;;;;;;;;;;;;;;;;;;344558;28;977;-75
2021/11/03 00:47:51;;;;;;;;;;;;;;;;;;343001;28;1261;-75
2021/11/03 00:48:02;;;;;;;;;;;;;;;;;;343174;28;989;-76
2021/11/03 00:48:39;;;;;;;;;;;;;;;;;;343131;28;985;-74
2021/11/03 00:48:51;;;;;;;;;;;;;;;;;;343093;28;966;-75
2021/11/03 00:49:01;;;;;;;;;;;;;;;;;;344487;28;1060;-75
2021/11/03 00:49:12;;;;;;;;;;;;;;;;;;344393;28;1189;-75
2021/11/03 00:49:22;;;;;;;;;;;;;;;;;;345480;28;1898;-75
2021/11/03 00:49:33;;;;;;;;;;;;;;;;;;344345;28;1209;-75
2021/11/03 00:50:09;;;;;;;;;;;;;;;;;;344522;28;850;-75
2021/11/03 00:50:20;;;;;;;;;;;;;;;;;;344457;28;981;-74
2021/11/03 00:50:58;;;;;;;;;;;;;;;;;;344486;28;764;-75
2021/11/03 00:51:09;;;;;;;;;;;;;;;;;;345253;28;1040;-76
2021/11/03 00:51:46;;;;;;;;;;;;;;;;;;348417;28;945;-75
2021/11/03 00:51:56;;;;;;;;;;;;;;;;;;348596;28;802;-75
2021/11/03 00:52:07;;;;;;;;;;;;;;;;;;348561;28;814;-75
2021/11/03 00:52:17;;;;;;;;;;;;;;;;;;348604;28;791;-75
2021/11/03 00:52:27;;;;;;;;;;;;;;;;;;347874;28;972;-75
2021/11/03 00:52:38;;;;;;;;;;;;;;;;;;345787;28;1052;-75
2021/11/03 00:52:49;;;;;;;;;;;;;;;;;;345755;28;1071;-76
2021/11/03 00:52:59;;;;;;;;;;;;;;;;;;345861;28;1124;-75
2021/11/03 00:53:16;;;;;;;;;;;;;;;;;;345739;28;1012;-75
2021/11/03 00:53:26;;;;;;;;;;;;;;;;;;344231;28;1288;-75
2021/11/03 00:53:37;;;;;;;;;;;;;;;;;;344482;28;799;-75
2021/11/03 00:54:02;;;;;;;;;;;;;;;;;;344394;28;906;-75
2021/11/03 00:54:18;;;;;;;;;;;;;;;;;;345777;28;945;-75
2021/11/03 00:54:29;;;;;;;;;;;;;;;;;;345600;28;972;-75
2021/11/03 00:54:39;;;;;;;;;;;;;;;;;;346990;28;992;-75
2021/11/03 00:54:49;;;;;;;;;;;;;;;;;;347022;28;767;-76
2021/11/03 00:55:00;;;;;;;;;;;;;;;;;;346957;28;992;-76
2021/11/03 00:55:10;;;;;;;;;;;;;;;;;;346946;28;981;-75
2021/11/03 00:55:21;;;;;;;;;;;;;;;;;;347622;28;925;-75
2021/11/03 00:55:53;;;;;;;;;;;;;;;;;;347127;28;1287;-76
2021/11/03 00:56:09;;;;;;;;;;;;;;;;;;347051;28;850;-75
2021/11/03 00:56:19;;;;;;;;;;;;;;;;;;347177;28;973;-75
2021/11/03 00:56:29;;;;;;;;;;;;;;;;;;347079;28;1299;-76
2021/11/03 00:56:40;;;;;;;;;;;;;;;;;;347166;28;964;-75
2021/11/03 00:56:50;;;;;;;;;;;;;;;;;;345467;28;1274;-75
2021/11/03 00:57:00;;;;;;;;;;;;;;;;;;345625;28;1020;-75
2021/11/03 00:57:11;;;;;;;;;;;;;;;;;;345813;28;885;-75
2021/11/03 00:57:28;;;;;;;;;;;;;;;;;;345831;28;925;-75
2021/11/03 00:57:38;;;;;;;;;;;;;;;;;;348365;28;1182;-75
2021/11/03 00:57:49;;;;;;;;;;;;;;;;;;348534;28;944;-75
2021/11/03 00:57:59;;;;;;;;;;;;;;;;;;347149;28;1005;-76
2021/11/03 00:58:10;;;;;;;;;;;;;;;;;;347013;28;1492;-75
2021/11/03 00:58:27;;;;;;;;;;;;;;;;;;345608;28;980;-75
2021/11/03 00:58:37;;;;;;;;;;;;;;;;;;345292;28;995;-75
2021/11/03 00:59:13;;;;;;;;;;;;;;;;;;344276;28;1329;-75
2021/11/03 00:59:23;;;;;;;;;;;;;;;;;;344437;28;866;-75
2021/11/03 01:00:00;;;;;;;;;;;;;;;;;;345644;28;830;-75
2021/11/03 01:00:12;;;;;;;;;;;;;;;;;;345854;28;902;-75
2021/11/03 01:00:23;;;;;;;;;;;;;;;;;;345766;28;1059;-75
2021/11/03 01:00:34;;;;;;;;;;;;;;;;;;345667;28;948;-75
2021/11/03 01:00:54;;;;;;;;;;;;;;;;;;344535;28;846;-75
2021/11/03 01:01:10;;;;;;;;;;;;;;;;;;345179;28;878;-75
2021/11/03 01:01:20;;;;;;;;;;;;;;;;;;344421;28;791;-75
2021/11/03 01:01:31;;;;;;;;;;;;;;;;;;344435;28;1032;-75
2021/11/03 01:01:42;;;;;;;;;;;;;;;;;;344463;28;941;-74
2021/11/03 01:01:53;;;;;;;;;;;;;;;;;;343023;28;1670;-75
2021/11/03 01:02:03;;;;;;;;;;;;;;;;;;343141;28;827;-76
2021/11/03 01:02:14;;;;;;;;;;;;;;;;;;342958;28;1437;-75
2021/11/03 01:02:24;;;;;;;;;;;;;;;;;;341833;28;1436;-75
2021/11/03 01:02:35;;;;;;;;;;;;;;;;;;341736;29;958;-75
2021/11/03 01:02:46;;;;;;;;;;;;;;;;;;341670;29;831;-75
2021/11/03 01:02:57;;;;;;;;;;;;;;;;;;344300;28;1284;-75
2021/11/03 01:03:07;;;;;;;;;;;;;;;;;;344422;28;933;-75
2021/11/03 01:03:17;;;;;;;;;;;;;;;;;;344223;28;1022;-75
2021/11/03 01:03:54;;;;;;;;;;;;;;;;;;345731;28;1323;-75
2021/11/03 01:04:04;;;;;;;;;;;;;;;;;;344475;28;925;-75
2021/11/03 01:04:15;;;;;;;;;;;;;;;;;;344466;28;921;-75
2021/11/03 01:04:25;;;;;;;;;;;;;;;;;;344436;28;1021;-75
2021/11/03 01:04:36;;;;;;;;;;;;;;;;;;344366;28;1056;-75
2021/11/03 01:04:46;;;;;;;;;;;;;;;;;;344482;28;803;-76
2021/11/03 01:04:57;;;;;;;;;;;;;;;;;;342981;28;1494;-75
2021/11/03 01:05:08;;;;;;;;;;;;;;;;;;344181;28;1539;-76
2021/11/03 01:05:20;;;;;;;;;;;;;;;;;;344378;28;1653;-76
2021/11/03 01:05:40;;;;;;;;;;;;;;;;;;344413;28;1444;-76
2021/11/03 01:05:56;;;;;;;;;;;;;;;;;;344439;28;989;-76
2021/11/03 01:06:07;;;;;;;;;;;;;;;;;;344477;28;815;-76
2021/11/03 01:06:17;;;;;;;;;;;;;;;;;;343046;28;1294;-75
2021/11/03 01:06:27;;;;;;;;;;;;;;;;;;343109;28;973;-76
2021/11/03 01:06:38;;;;;;;;;;;;;;;;;;343124;28;985;-75
2021/11/03 01:06:48;;;;;;;;;;;;;;;;;;343102;28;973;-75
2021/11/03 01:06:59;;;;;;;;;;;;;;;;;;344446;28;973;-74
2021/11/03 01:07:09;;;;;;;;;;;;;;;;;;344418;28;921;-76
2021/11/03 01:07:19;;;;;;;;;;;;;;;;;;344285;28;1201;-75
2021/11/03 01:07:30;;;;;;;;;;;;;;;;;;342789;28;1325;-74
2021/11/03 01:07:41;;;;;;;;;;;;;;;;;;341657;28;1093;-75
2021/11/03 01:07:56;;;;;;;;;;;;;;;;;;341748;29;842;-75
2021/11/03 01:08:10;;;;;;;;;;;;;;;;;;342993;28;1459;-75
2021/11/03 01:08:20;;;;;;;;;;;;;;;;;;344434;28;953;-75
2021/11/03 01:08:32;;;;;;;;;;;;;;;;;;341250;29;1194;-75
2021/11/03 01:09:08;;;;;;;;;;;;;;;;;;341719;29;1227;-75
2021/11/03 01:09:19;;;;;;;;;;;;;;;;;;341583;29;1922;-75
2021/11/03 01:09:30;;;;;;;;;;;;;;;;;;341748;29;1376;-75
2021/11/03 01:09:40;;;;;;;;;;;;;;;;;;341782;29;1029;-75
2021/11/03 01:09:51;;;;;;;;;;;;;;;;;;343141;28;834;-75
2021/11/03 01:10:02;;;;;;;;;;;;;;;;;;343226;28;981;-75
2021/11/03 01:10:13;;;;;;;;;;;;;;;;;;344496;28;1213;-74
2021/11/03 01:10:24;;;;;;;;;;;;;;;;;;344442;28;941;-75
2021/11/03 01:10:36;;;;;;;;;;;;;;;;;;344315;28;1425;-75
2021/11/03 01:11:14;;;;;;;;;;;;;;;;;;345768;28;881;-74
2021/11/03 01:11:24;;;;;;;;;;;;;;;;;;345825;28;850;-75
2021/11/03 01:11:35;;;;;;;;;;;;;;;;;;345637;28;1501;-75
2021/11/03 01:11:46;;;;;;;;;;;;;;;;;;345115;28;938;-75
2021/11/03 01:11:56;;;;;;;;;;;;;;;;;;344395;28;961;-75
2021/11/03 01:12:07;;;;;;;;;;;;;;;;;;344800;28;857;-75
2021/11/03 01:12:24;;;;;;;;;;;;;;;;;;345821;28;823;-75
2021/11/03 01:12:34;;;;;;;;;;;;;;;;;;346963;28;811;-75
2021/11/03 01:12:45;;;;;;;;;;;;;;;;;;347181;28;1013;-74
2021/11/03 01:12:56;;;;;;;;;;;;;;;;;;347202;28;921;-74
2021/11/03 01:13:07;;;;;;;;;;;;;;;;;;347126;28;977;-75
2021/11/03 01:13:18;;;;;;;;;;;;;;;;;;347089;28;1056;-75
2021/11/03 01:13:29;;;;;;;;;;;;;;;;;;347157;28;948;-74
2021/11/03 01:13:39;;;;;;;;;;;;;;;;;;347163;28;929;-76
2021/11/03 01:14:05;;;;;;;;;;;;;;;;;;346936;28;1236;-74
2021/11/03 01:14:22;;;;;;;;;;;;;;;;;;347077;28;1044;-74
2021/11/03 01:14:33;;;;;;;;;;;;;;;;;;345702;28;1329;-74
2021/11/03 01:14:44;;;;;;;;;;;;;;;;;;345790;28;835;-76
2021/11/03 01:14:54;;;;;;;;;;;;;;;;;;345809;28;1008;-75
2021/11/03 01:15:06;;;;;;;;;;;;;;;;;;344459;28;981;-75
2021/11/03 01:15:18;;;;;;;;;;;;;;;;;;344461;28;934;-75
2021/11/03 01:15:29;;;;;;;;;;;;;;;;;;344402;28;882;-75
2021/11/03 01:15:39;;;;;;;;;;;;;;;;;;343087;28;835;-75
2021/11/03 01:15:50;;;;;;;;;;;;;;;;;;344234;28;917;-73
2021/11/03 01:16:01;;;;;;;;;;;;;;;;;;344346;28;989;-75
2021/11/03 01:16:11;;;;;;;;;;;;;;;;;;344423;28;830;-75
2021/11/03 01:16:22;;;;;;;;;;;;;;;;;;344436;28;993;-74
2021/11/03 01:16:32;;;;;;;;;;;;;;;;;;345501;28;945;-75
2021/11/03 01:16:43;;;;;;;;;;;;;;;;;;345758;28;930;-75
2021/11/03 01:16:53;;;;;;;;;;;;;;;;;;345823;28;826;-74
2021/11/03 01:17:30;;;;;;;;;;;;;;;;;;347130;28;866;-75
2021/11/03 01:18:06;;;;;;;;;;;;;;;;;;345798;28;862;-75
2021/11/03 01:18:17;;;;;;;;;;;;;;;;;;344350;28;961;-75
2021/11/03 01:18:28;;;;;;;;;;;;;;;;;;344371;28;878;-74
2021/11/03 01:18:39;;;;;;;;;;;;;;;;;;342937;28;894;-75
2021/11/03 01:18:53;;;;;;;;;;;;;;;;;;343019;28;1025;-74
2021/11/03 01:19:04;;;;;;;;;;;;;;;;;;343100;28;981;-75
2021/11/03 01:19:15;;;;;;;;;;;;;;;;;;342972;28;1588;-76
2021/11/03 01:19:25;;;;;;;;;;;;;;;;;;342976;28;1300;-76
2021/11/03 01:19:35;;;;;;;;;;;;;;;;;;342891;28;961;-74
2021/11/03 01:20:13;;;;;;;;;;;;;;;;;;341777;29;866;-73
2021/11/03 01:20:24;;;;;;;;;;;;;;;;;;342354;28;1053;-74
2021/11/03 01:21:02;;;;;;;;;;;;;;;;;;344363;28;973;-74
2021/11/03 01:21:40;;;;;;;;;;;;;;;;;;347179;28;945;-75
2021/11/03 01:22:16;;;;;;;;;;;;;;;;;;347130;28;744;-75
2021/11/03 01:22:27;;;;;;;;;;;;;;;;;;345651;28;1316;-76
2021/11/03 01:22:38;;;;;;;;;;;;;;;;;;345673;28;1189;-74
2021/11/03 01:22:48;;;;;;;;;;;;;;;;;;345674;28;1084;-75
2021/11/03 01:22:59;;;;;;;;;;;;;;;;;;345734;28;842;-75
2021/11/03 01:23:10;;;;;;;;;;;;;;;;;;345753;28;842;-73
2021/11/03 01:23:21;;;;;;;;;;;;;;;;;;345778;28;969;-74
2021/11/03 01:23:32;;;;;;;;;;;;;;;;;;345772;28;846;-75
2021/11/03 01:23:58;;;;;;;;;;;;;;;;;;342535;28;1218;-75
2021/11/03 01:24:08;;;;;;;;;;;;;;;;;;342935;28;1249;-76
2021/11/03 01:24:19;;;;;;;;;;;;;;;;;;343157;28;847;-75
2021/11/03 01:24:29;;;;;;;;;;;;;;;;;;343158;28;985;-76
2021/11/03 01:24:40;;;;;;;;;;;;;;;;;;344407;28;926;-75
2021/11/03 01:24:50;;;;;;;;;;;;;;;;;;344413;28;913;-75
2021/11/03 01:25:01;;;;;;;;;;;;;;;;;;344345;28;810;-75
2021/11/03 01:25:12;;;;;;;;;;;;;;;;;;344446;28;913;-76
2021/11/03 01:25:24;;;;;;;;;;;;;;;;;;344418;28;1005;-75
2021/11/03 01:25:34;;;;;;;;;;;;;;;;;;344539;28;1044;-72
2021/11/03 01:25:45;;;;;;;;;;;;;;;;;;347077;28;898;-75
2021/11/03 01:25:56;;;;;;;;;;;;;;;;;;345760;28;495;-74
2021/11/03 01:26:06;;;;;;;;;;;;;;;;;;346730;28;996;-75
2021/11/03 01:26:16;;;;;;;;;;;;;;;;;;347084;28;981;-75
2021/11/03 01:26:27;;;;;;;;;;;;;;;;;;347116;28;989;-75
2021/11/03 01:26:37;;;;;;;;;;;;;;;;;;347152;28;909;-75
2021/11/03 01:26:48;;;;;;;;;;;;;;;;;;347126;28;1250;-75
2021/11/03 01:26:58;;;;;;;;;;;;;;;;;;347198;28;815;-75
2021/11/03 01:27:09;;;;;;;;;;;;;;;;;;347127;28;870;-74
2021/11/03 01:27:19;;;;;;;;;;;;;;;;;;346614;28;944;-75
2021/11/03 01:27:29;;;;;;;;;;;;;;;;;;345657;28;1176;-75
2021/11/03 01:27:40;;;;;;;;;;;;;;;;;;345782;28;1020;-75
2021/11/03 01:27:51;;;;;;;;;;;;;;;;;;346444;28;917;-74
2021/11/03 01:28:01;;;;;;;;;;;;;;;;;;347163;28;787;-75
2021/11/03 01:28:11;;;;;;;;;;;;;;;;;;344242;28;1423;-75
2021/11/03 01:28:22;;;;;;;;;;;;;;;;;;344419;28;865;-76
2021/11/03 01:28:38;;;;;;;;;;;;;;;;;;344358;28;1032;-75
2021/11/03 01:28:52;;;;;;;;;;;;;;;;;;344222;28;1456;-75
2021/11/03 01:29:04;;;;;;;;;;;;;;;;;;344339;28;1342;-75
2021/11/03 01:29:26;;;;;;;;;;;;;;;;;;344411;28;1016;-75
2021/11/03 01:29:39;;;;;;;;;;;;;;;;;;345771;28;1090;-75
2021/11/03 01:29:50;;;;;;;;;;;;;;;;;;344438;28;974;-75
2021/11/03 01:30:00;;;;;;;;;;;;;;;;;;344318;28;973;-75
2021/11/03 01:30:26;;;;;;;;;;;;;;;;;;344430;28;918;-75
2021/11/03 01:30:37;;;;;;;;;;;;;;;;;;342948;28;1185;-75
2021/11/03 01:31:45;;;;;;;;;;;;;;;;;;344668;28;1370;-74
2021/11/03 01:31:55;;;;;;;;;;;;;;;;;;345744;28;1020;-75
2021/11/03 01:32:06;;;;;;;;;;;;;;;;;;344408;28;1013;-75
2021/11/03 01:32:16;;;;;;;;;;;;;;;;;;343074;28;915;-76
2021/11/03 01:32:27;;;;;;;;;;;;;;;;;;343119;28;862;-75
2021/11/03 01:32:37;;;;;;;;;;;;;;;;;;343085;28;1003;-73
2021/11/03 01:32:48;;;;;;;;;;;;;;;;;;343040;28;1021;-75
2021/11/03 01:32:58;;;;;;;;;;;;;;;;;;343053;28;950;-75
2021/11/03 01:33:09;;;;;;;;;;;;;;;;;;343099;28;879;-75
2021/11/03 01:33:20;;;;;;;;;;;;;;;;;;343162;28;878;-75
2021/11/03 01:33:46;;;;;;;;;;;;;;;;;;343009;28;1439;-75
2021/11/03 01:33:56;;;;;;;;;;;;;;;;;;342856;28;1692;-74
2021/11/03 01:34:14;;;;;;;;;;;;;;;;;;343088;28;791;-76
2021/11/03 01:34:24;;;;;;;;;;;;;;;;;;343100;28;875;-75
2021/11/03 01:34:34;;;;;;;;;;;;;;;;;;343870;28;990;-75
2021/11/03 01:34:45;;;;;;;;;;;;;;;;;;344468;28;870;-75
2021/11/03 01:34:55;;;;;;;;;;;;;;;;;;344060;28;976;-75
2021/11/03 01:35:07;;;;;;;;;;;;;;;;;;344414;28;910;-75
2021/11/03 01:35:32;;;;;;;;;;;;;;;;;;344459;28;831;-74
2021/11/03 01:35:44;;;;;;;;;;;;;;;;;;347075;28;817;-75
2021/11/03 01:35:54;;;;;;;;;;;;;;;;;;347950;28;1007;-75
2021/11/03 01:36:05;;;;;;;;;;;;;;;;;;348326;28;971;-75
2021/11/03 01:36:15;;;;;;;;;;;;;;;;;;347100;28;1126;-74
2021/11/03 01:36:31;;;;;;;;;;;;;;;;;;345809;28;921;-75
2021/11/03 01:36:47;;;;;;;;;;;;;;;;;;345791;28;833;-75
2021/11/03 01:36:57;;;;;;;;;;;;;;;;;;344297;28;1278;-74
2021/11/03 01:37:08;;;;;;;;;;;;;;;;;;342923;28;1631;-75
2021/11/03 01:37:18;;;;;;;;;;;;;;;;;;343126;28;965;-75
2021/11/03 01:37:56;;;;;;;;;;;;;;;;;;343049;28;1032;-74
2021/11/03 01:38:07;;;;;;;;;;;;;;;;;;343061;28;1112;-75
2021/11/03 01:38:17;;;;;;;;;;;;;;;;;;342951;28;1301;-75